This is the latest recevied weather packets stored in our database for station/object TA2LKM-11. If no packets are shown the sender has not sent any weather packets the latest 10 day(s).
| Time | Temp. | Humidity | Pressure | Rain* | Wind** | Luminosity | Snow |
|---|---|---|---|---|---|---|---|
| 1788341289 | 33.33° C | 36% | 1015.8 hPa | - | - | - | - |
| 1788340389 | 34.44° C | 31% | 1015.8 hPa | - | - | - | - |
| 1788339488 | 34.44° C | 35% | 1016.1 hPa | - | - | - | - |
| 1788338587 | 34.44° C | 36% | 1016.2 hPa | - | - | - | - |
| 1788337686 | 33.89° C | 40% | 1016.2 hPa | - | - | - | - |
| 1788337598 | 33.89° C | 41% | 1016.2 hPa | - | - | - | - |
| 1788336697 | 31.67° C | 37% | 1016.2 hPa | - | - | - | - |
| 1788336609 | 33.33° C | 34% | 1016.2 hPa | - | - | - | - |
| 1788335708 | 31.11° C | 34% | 1016.2 hPa | - | - | - | - |
| 1788334806 | 33.33° C | 33% | 1016.2 hPa | - | - | - | - |
| 1788334718 | 32.78° C | 33% | 1016.3 hPa | - | - | - | - |
| 1788333817 | 32.78° C | 33% | 1016.3 hPa | - | - | - | - |
| 1788332916 | 33.33° C | 34% | 1016 hPa | - | - | - | - |
| 1788332016 | 31.11° C | 36% | 1015.7 hPa | - | - | - | - |
| 1788331115 | 41.11° C | 24% | 1016.5 hPa | - | - | - | - |
| 1788331027 | 39.44° C | 27% | 1016.6 hPa | - | - | - | - |
| 1788330126 | 39.44° C | 27% | 1016.8 hPa | - | - | - | - |
| 1788329225 | 36.11° C | 29% | 1016.8 hPa | - | - | - | - |
| 1788328325 | 38.33° C | 28% | 1016.8 hPa | - | - | - | - |
| 1788327424 | 42.22° C | 22% | 1017 hPa | - | - | - | - |
| 1788326435 | 35.56° C | 28% | 1016.9 hPa | - | - | - | - |
| 1788325534 | 36.11° C | 26% | 1016.9 hPa | - | - | - | - |
| 1788324634 | 32.22° C | 30% | 1016.7 hPa | - | - | - | - |
| 1788323733 | 30° C | 34% | 1016.6 hPa | - | - | - | - |
| 1788322832 | 25.56° C | 39% | 1016.4 hPa | - | - | - | - |
* Rain since midnight (hover to see other rain measurements)
** Current wind speed in m/s (hover to see current wind gust speed)